createdAt,value
2023-05-11T00:00:03.108Z,27.3
2023-05-11T00:02:53.210Z,27.2
2023-05-11T00:05:40.731Z,27.5
2023-05-11T00:08:33.447Z,27.3
2023-05-11T00:11:20.869Z,27
2023-05-11T00:14:08.334Z,26.8
2023-05-11T00:16:55.579Z,27
2023-05-11T00:19:42.874Z,27.1
2023-05-11T00:22:30.498Z,27
2023-05-11T00:25:17.840Z,27.2
2023-05-11T00:28:05.619Z,27.2
2023-05-11T00:30:53.497Z,27.2
2023-05-11T00:33:42.426Z,27.1
2023-05-11T00:36:30.039Z,27.1
2023-05-11T00:39:17.819Z,27.1
2023-05-11T00:42:05.384Z,26.8
2023-05-11T00:44:53.199Z,26.4
2023-05-11T00:47:41.090Z,26.6
2023-05-11T00:50:28.490Z,26.7
2023-05-11T00:53:16.031Z,26.8
2023-05-11T00:56:03.390Z,26.8
2023-05-11T00:58:51.259Z,27.1
2023-05-11T01:01:40.090Z,26.8
2023-05-11T01:04:27.606Z,26.7
2023-05-11T01:07:15.573Z,27
2023-05-11T01:10:08.940Z,27
2023-05-11T01:13:06.243Z,26.7
2023-05-11T01:16:00.388Z,26.4
2023-05-11T01:18:53.828Z,26.7
2023-05-11T01:21:46.054Z,26.7
2023-05-11T01:24:36.070Z,26.8
2023-05-11T01:27:39.699Z,26.5
2023-05-11T01:30:42.440Z,26.7
2023-05-11T01:33:35.058Z,26.5
2023-05-11T01:36:26.262Z,26.2
2023-05-11T01:39:19.912Z,26.8
2023-05-11T01:42:15.582Z,26.9
2023-05-11T01:45:09.626Z,26.7
2023-05-11T01:48:00.899Z,26.7
2023-05-11T01:50:53.848Z,26.8
2023-05-11T01:53:44.315Z,26.8
2023-05-11T01:56:33.041Z,26.5
2023-05-11T01:59:23.271Z,26.5
2023-05-11T02:02:11.565Z,26.3
2023-05-11T02:04:59.988Z,26.4
2023-05-11T02:07:48.199Z,26.7
2023-05-11T02:10:38.132Z,26.6
2023-05-11T02:13:26.787Z,26.7
2023-05-11T02:16:15.550Z,26.6
2023-05-11T02:19:05.221Z,26.5
2023-05-11T02:21:53.640Z,26.6
2023-05-11T02:24:41.836Z,26.8
2023-05-11T02:27:29.572Z,26.8
2023-05-11T02:30:17.909Z,26.8
2023-05-11T02:33:05.682Z,26.7
2023-05-11T02:35:54.208Z,26.5
2023-05-11T02:38:43.536Z,26.2
2023-05-11T02:41:32.927Z,26.1
2023-05-11T02:44:25.103Z,26
2023-05-11T02:47:17.303Z,26
2023-05-11T02:50:06.213Z,26.2
2023-05-11T02:52:55.050Z,26.1
2023-05-11T02:55:47.182Z,25.9
2023-05-11T02:58:36.819Z,26.2
2023-05-11T03:01:24.802Z,25.7
2023-05-11T03:04:14.038Z,26
2023-05-11T03:07:01.443Z,25.7
2023-05-11T03:09:48.901Z,26
2023-05-11T03:12:36.680Z,26.2
2023-05-11T03:15:24.388Z,26.1
2023-05-11T03:18:13.434Z,26.1
2023-05-11T03:21:02.396Z,26
2023-05-11T03:23:52.163Z,26.2
2023-05-11T03:26:42.558Z,26.2
2023-05-11T03:29:30.869Z,26.2
2023-05-11T03:32:23.057Z,26.1
2023-05-11T03:35:10.671Z,25.8
2023-05-11T03:37:58.089Z,26
2023-05-11T03:40:46.998Z,26
2023-05-11T03:43:37.301Z,26.1
2023-05-11T03:46:25.979Z,26.2
2023-05-11T03:49:14.403Z,26
2023-05-11T03:52:03.047Z,26.2
2023-05-11T03:54:51.359Z,25.8
2023-05-11T03:57:39.565Z,26.1
2023-05-11T04:00:27.465Z,26.3
2023-05-11T04:03:15.687Z,26
2023-05-11T04:06:03.207Z,26.2
2023-05-11T04:08:50.819Z,25.8
2023-05-11T04:11:38.331Z,25.8
2023-05-11T04:14:25.871Z,25.8
2023-05-11T04:17:13.259Z,25.2
2023-05-11T04:20:00.663Z,25.5
2023-05-11T04:22:48.955Z,24.3
2023-05-11T04:25:36.788Z,21.9
2023-05-11T04:28:24.061Z,20
2023-05-11T04:31:12.528Z,18.5
2023-05-11T04:34:00.714Z,17.3
2023-05-11T04:36:50.808Z,16.4
2023-05-11T04:39:38.374Z,15.6
2023-05-11T04:42:25.806Z,15.1
2023-05-11T04:45:15.073Z,14.7
2023-05-11T04:48:02.567Z,14.4
2023-05-11T04:50:51.045Z,14.1
2023-05-11T04:53:39.832Z,13.9
2023-05-11T04:56:27.194Z,13.8
2023-05-11T04:59:14.577Z,13.6
2023-05-11T05:02:01.857Z,13.5
2023-05-11T05:04:49.384Z,13.4
2023-05-11T05:07:36.829Z,13.3
2023-05-11T05:10:24.237Z,13.2
2023-05-11T05:13:11.662Z,13.2
2023-05-11T05:16:01.420Z,13.1
2023-05-11T05:18:49.111Z,13.1
2023-05-11T05:21:36.483Z,13.1
2023-05-11T05:24:25.233Z,13.1
2023-05-11T05:27:12.606Z,13.1
2023-05-11T05:30:00.014Z,13.1
2023-05-11T05:32:48.280Z,13.2
2023-05-11T05:35:35.838Z,13.2
2023-05-11T05:38:23.291Z,13.3
2023-05-11T05:41:10.731Z,13.3
2023-05-11T05:43:58.413Z,13.4
2023-05-11T05:46:45.794Z,13.4
2023-05-11T05:49:34.550Z,13.5
2023-05-11T05:52:22.286Z,13.5
2023-05-11T05:55:10.192Z,13.5
2023-05-11T05:57:57.798Z,13.6
2023-05-11T06:00:47.032Z,13.6
2023-05-11T06:03:34.734Z,13.6
2023-05-11T06:06:23.238Z,13.7
2023-05-11T06:09:11.774Z,13.7
2023-05-11T06:11:59.357Z,13.8
2023-05-11T06:14:46.932Z,13.8
2023-05-11T06:17:34.724Z,13.9
2023-05-11T06:20:22.208Z,13.9
2023-05-11T06:23:09.632Z,14
2023-05-11T06:25:57.097Z,14
2023-05-11T06:28:44.525Z,14
2023-05-11T06:31:32.184Z,14.1
2023-05-11T06:34:19.567Z,14.1
2023-05-11T06:37:07.180Z,14.2
2023-05-11T06:39:54.554Z,14.2
2023-05-11T06:42:42.971Z,14.3
2023-05-11T06:45:30.828Z,14.4
2023-05-11T06:48:18.405Z,14.5
2023-05-11T06:51:08.007Z,14.5
2023-05-11T06:53:56.112Z,14.6
2023-05-11T06:56:43.570Z,14.7
2023-05-11T06:59:31.007Z,14.7
2023-05-11T07:02:18.446Z,14.8
2023-05-11T07:05:05.931Z,14.9
2023-05-11T07:07:54.143Z,14.9
2023-05-11T07:10:41.684Z,15
2023-05-11T07:13:29.142Z,15.1
2023-05-11T07:16:17.000Z,15.1
2023-05-11T07:19:05.183Z,15.2
2023-05-11T07:21:53.293Z,15.3
2023-05-11T07:24:41.229Z,15.4
2023-05-11T07:27:28.533Z,15.5
2023-05-11T07:30:18.495Z,15.6
2023-05-11T07:33:06.441Z,15.7
2023-05-11T07:35:54.163Z,15.9
2023-05-11T07:38:41.548Z,16
2023-05-11T07:41:29.045Z,16.1
2023-05-11T07:44:16.546Z,16.2
2023-05-11T07:47:04.529Z,16.4
2023-05-11T07:49:52.052Z,16.5
2023-05-11T07:52:40.886Z,16.7
2023-05-11T07:55:28.226Z,16.8
2023-05-11T07:58:15.649Z,16.9
2023-05-11T08:01:03.064Z,17
2023-05-11T08:03:51.820Z,17.1
2023-05-11T08:06:40.660Z,17.2
2023-05-11T08:09:28.132Z,17.4
2023-05-11T08:12:15.776Z,17.5
2023-05-11T08:15:03.390Z,17.6
2023-05-11T08:17:51.934Z,17.7
2023-05-11T08:20:40.846Z,17.9
2023-05-11T08:23:28.146Z,18
2023-05-11T08:26:16.338Z,18.1
2023-05-11T08:29:03.630Z,18.2
2023-05-11T08:31:51.236Z,18.4
2023-05-11T08:34:40.023Z,18.5
2023-05-11T08:37:27.561Z,18.7
2023-05-11T08:40:15.080Z,18.8
2023-05-11T08:43:04.183Z,18.9
2023-05-11T08:45:52.823Z,19.1
2023-05-11T08:48:46.006Z,19.2
2023-05-11T08:51:34.311Z,19.3
2023-05-11T08:54:21.827Z,19.4
2023-05-11T08:57:10.164Z,19.5
2023-05-11T08:59:59.286Z,19.6
2023-05-11T09:02:48.280Z,19.8
2023-05-11T09:05:37.267Z,19.9
2023-05-11T09:08:25.820Z,20
2023-05-11T09:11:16.256Z,20.2
2023-05-11T09:14:03.724Z,20.3
2023-05-11T09:16:51.072Z,20.5
2023-05-11T09:19:39.018Z,20.6
2023-05-11T09:22:43.994Z,20.8
2023-05-11T09:25:32.364Z,20.9
2023-05-11T09:31:13.261Z,20.9
2023-05-11T09:34:20.705Z,21.1
2023-05-11T09:37:09.010Z,21.3
2023-05-11T09:42:56.095Z,21.7
2023-05-11T09:45:44.955Z,21.9
2023-05-11T09:48:34.613Z,22.1
2023-05-11T09:51:22.704Z,22.3
2023-05-11T09:54:15.589Z,22.5
2023-05-11T09:57:07.061Z,22.6
2023-05-11T10:00:08.095Z,22.8
2023-05-11T10:03:00.460Z,22.9
2023-05-11T10:05:50.333Z,23.1
2023-05-11T10:08:46.494Z,23.3
2023-05-11T10:11:34.859Z,23.4
2023-05-11T10:14:27.913Z,23.6
2023-05-11T10:17:17.360Z,23.8
2023-05-11T10:20:05.383Z,23.9
2023-05-11T10:22:54.414Z,24.1
2023-05-11T10:25:41.909Z,24.3
2023-05-11T10:28:31.141Z,24.4
2023-05-11T10:31:19.280Z,24.5
2023-05-11T10:34:08.866Z,24.6
2023-05-11T10:36:57.940Z,24.7
2023-05-11T10:39:49.186Z,24.7
2023-05-11T10:42:37.885Z,24.8
2023-05-11T10:46:08.749Z,24.8
2023-05-11T10:49:11.436Z,24.8
2023-05-11T10:52:19.184Z,24.8
2023-05-11T10:55:26.202Z,24.9
2023-05-11T10:58:27.865Z,25.1
2023-05-11T11:01:29.369Z,25.4
2023-05-11T11:04:24.358Z,25.6
2023-05-11T11:07:27.357Z,25.9
2023-05-11T11:10:14.961Z,26.1
2023-05-11T11:13:16.267Z,26.2
2023-05-11T11:16:04.862Z,26.5
2023-05-11T11:18:56.669Z,26.7
2023-05-11T11:22:23.359Z,27.1
2023-05-11T11:25:49.206Z,27.2
2023-05-11T11:28:39.560Z,27.4
2023-05-11T11:31:58.704Z,27.6
2023-05-11T11:35:12.515Z,27.9
2023-05-11T11:38:31.889Z,28.1
2023-05-11T11:41:41.678Z,28.2
2023-05-11T11:44:29.252Z,28.4
2023-05-11T11:47:17.627Z,28.6
2023-05-11T11:50:06.383Z,28.8
2023-05-11T11:52:57.902Z,29
2023-05-11T11:55:45.598Z,29.1
2023-05-11T11:58:36.428Z,29.3
2023-05-11T12:01:58.590Z,29.4
2023-05-11T12:04:47.408Z,29.6
2023-05-11T12:07:41.477Z,29.7
2023-05-11T12:10:30.875Z,29.9
2023-05-11T12:13:18.957Z,30.1
2023-05-11T12:16:06.758Z,30.3
2023-05-11T12:18:54.935Z,30.4
2023-05-11T12:21:44.288Z,30.5
2023-05-11T12:24:32.475Z,30.7
2023-05-11T12:27:20.145Z,32.1
2023-05-11T12:30:09.315Z,34.1
2023-05-11T12:33:05.815Z,35.4
2023-05-11T12:35:53.847Z,36.6
2023-05-11T12:38:42.351Z,37.2
2023-05-11T12:41:30.065Z,37.4
2023-05-11T12:44:17.615Z,37.7
2023-05-11T12:47:07.345Z,37.8
2023-05-11T12:49:56.362Z,38.4
2023-05-11T12:52:43.940Z,38.9
2023-05-11T12:55:32.869Z,38.9
2023-05-11T12:58:20.510Z,39
2023-05-11T13:01:09.152Z,38.9
2023-05-11T13:03:57.150Z,38.8
2023-05-11T13:06:44.898Z,39.1
2023-05-11T13:09:32.374Z,39.2
2023-05-11T13:12:20.192Z,39.2
2023-05-11T13:15:08.795Z,39.4
2023-05-11T13:17:57.204Z,39.6
2023-05-11T13:20:47.831Z,39.7
2023-05-11T13:23:52.057Z,39.8
2023-05-11T13:26:40.615Z,39.9
2023-05-11T13:29:28.238Z,40.1
2023-05-11T13:32:16.143Z,40.1
2023-05-11T13:35:03.704Z,40.1
2023-05-11T13:37:51.977Z,40.6
2023-05-11T13:40:40.346Z,40.6
2023-05-11T13:43:27.752Z,40.7
2023-05-11T13:46:15.104Z,41
2023-05-11T13:49:03.001Z,41.3
2023-05-11T13:51:50.911Z,41.6
2023-05-11T13:54:40.114Z,41.6
2023-05-11T13:57:27.606Z,42.1
2023-05-11T14:00:15.709Z,42.4
2023-05-11T14:03:04.342Z,42.5
2023-05-11T14:05:52.010Z,42.8
2023-05-11T14:08:40.193Z,43.3
2023-05-11T14:11:27.641Z,43.6
2023-05-11T14:14:15.073Z,43.1
2023-05-11T14:17:02.685Z,43.2
2023-05-11T14:19:50.795Z,43.5
2023-05-11T14:22:38.341Z,42.8
2023-05-11T14:25:26.057Z,41.6
2023-05-11T14:28:13.455Z,40.9
2023-05-11T14:31:02.288Z,40.4
2023-05-11T14:33:49.924Z,40.5
2023-05-11T14:36:37.345Z,40.5
2023-05-11T14:39:24.970Z,39.9
2023-05-11T14:42:12.291Z,39.4
2023-05-11T14:44:59.867Z,38.6
2023-05-11T14:47:47.373Z,38.1
2023-05-11T14:50:35.024Z,38.2
2023-05-11T14:53:22.404Z,38.7
2023-05-11T14:56:09.805Z,39.2
2023-05-11T14:58:57.427Z,39.9
2023-05-11T15:01:45.224Z,40.4
2023-05-11T15:04:34.022Z,40.5
2023-05-11T15:07:21.489Z,40.4
2023-05-11T15:10:08.825Z,39.9
2023-05-11T15:12:56.468Z,39.4
2023-05-11T15:15:43.895Z,39.4
2023-05-11T15:18:31.446Z,40
2023-05-11T15:21:18.940Z,40.2
2023-05-11T15:24:08.095Z,40.7
2023-05-11T15:26:57.514Z,41.1
2023-05-11T15:29:45.284Z,41.4
2023-05-11T15:32:34.648Z,41.5
2023-05-11T15:35:22.741Z,41.8
2023-05-11T15:38:10.362Z,42
2023-05-11T15:40:57.994Z,42.1
2023-05-11T15:43:45.379Z,41.9
2023-05-11T15:46:32.935Z,41.7
2023-05-11T15:49:20.816Z,41.6
2023-05-11T15:52:08.259Z,41.4
2023-05-11T15:54:56.080Z,40.9
2023-05-11T15:57:43.587Z,40.6
2023-05-11T16:00:30.971Z,40.6
2023-05-11T16:03:19.623Z,41.3
2023-05-11T16:06:07.948Z,41.8
2023-05-11T16:08:55.621Z,41.9
2023-05-11T16:11:43.253Z,41.8
2023-05-11T16:14:30.658Z,41.8
2023-05-11T16:17:18.439Z,41.8
2023-05-11T16:20:06.073Z,41.8
2023-05-11T16:22:54.829Z,41.6
2023-05-11T16:25:42.396Z,41.5
2023-05-11T16:28:30.465Z,41.6
2023-05-11T16:31:18.700Z,42.2
2023-05-11T16:34:07.062Z,42.6
2023-05-11T16:36:56.133Z,42.6
2023-05-11T16:39:45.513Z,42.8
2023-05-11T16:42:32.969Z,42.8
2023-05-11T16:45:20.410Z,43
2023-05-11T16:48:07.912Z,43.1
2023-05-11T16:50:55.389Z,43.2
2023-05-11T16:53:42.706Z,43
2023-05-11T16:56:31.077Z,43
2023-05-11T16:59:18.713Z,42.8
2023-05-11T17:02:06.239Z,42.8
2023-05-11T17:04:54.116Z,42.7
2023-05-11T17:07:41.932Z,42.4
2023-05-11T17:10:30.798Z,42.1
2023-05-11T17:13:18.303Z,41.9
2023-05-11T17:16:05.919Z,41.4
2023-05-11T17:18:53.711Z,40.7
2023-05-11T17:21:41.824Z,40.5
2023-05-11T17:24:29.989Z,40.6
2023-05-11T17:27:17.703Z,40.5
2023-05-11T17:30:05.491Z,40.1
2023-05-11T17:32:54.954Z,39.2
2023-05-11T17:35:43.177Z,37.8
2023-05-11T17:38:30.922Z,36.6
2023-05-11T17:41:19.044Z,35.7
2023-05-11T17:44:07.012Z,35.1
2023-05-11T17:46:54.945Z,35
2023-05-11T17:49:42.425Z,34.4
2023-05-11T17:52:30.281Z,33.7
2023-05-11T17:55:18.475Z,33.2
2023-05-11T17:58:06.202Z,33
2023-05-11T18:00:54.563Z,32.8
2023-05-11T18:03:42.398Z,32.6
2023-05-11T18:06:31.692Z,32.3
2023-05-11T18:09:19.729Z,32.1
2023-05-11T18:12:07.225Z,31.9
2023-05-11T18:14:55.069Z,32
2023-05-11T18:17:42.546Z,32.4
2023-05-11T18:20:30.038Z,32.6
2023-05-11T18:23:17.558Z,32.4
2023-05-11T18:26:05.055Z,32.1
2023-05-11T18:28:52.506Z,31.9
2023-05-11T18:31:41.628Z,32
2023-05-11T18:34:29.998Z,31.8
2023-05-11T18:37:18.839Z,31.8
2023-05-11T18:40:06.263Z,31.9
2023-05-11T18:42:55.186Z,31.9
2023-05-11T18:45:42.750Z,31.9
2023-05-11T18:48:31.075Z,32
2023-05-11T18:51:18.703Z,31.9
2023-05-11T18:54:09.219Z,31.8
2023-05-11T18:56:57.153Z,30.3
2023-05-11T18:59:44.647Z,28.4
2023-05-11T19:02:32.517Z,26.8
2023-05-11T19:05:20.102Z,25.5
2023-05-11T19:08:07.943Z,24.4
2023-05-11T19:10:56.545Z,23.6
2023-05-11T19:13:48.768Z,22.9
2023-05-11T19:16:36.192Z,22.3
2023-05-11T19:19:23.775Z,21.8
2023-05-11T19:22:11.461Z,21.5
2023-05-11T19:24:59.310Z,21.1
2023-05-11T19:27:46.967Z,20.8
2023-05-11T19:30:34.488Z,20.5
2023-05-11T19:33:22.182Z,20.2
2023-05-11T19:36:09.739Z,20
2023-05-11T19:38:57.994Z,19.8
2023-05-11T19:41:45.376Z,19.7
2023-05-11T19:44:33.029Z,19.6
2023-05-11T19:47:22.566Z,19.5
2023-05-11T19:50:10.048Z,19.4
2023-05-11T19:52:59.280Z,19.2
2023-05-11T19:55:48.184Z,19.1
2023-05-11T19:58:35.719Z,19
2023-05-11T20:01:23.195Z,18.9
2023-05-11T20:04:10.925Z,18.8
2023-05-11T20:06:59.708Z,18.7
2023-05-11T20:09:48.230Z,18.6
2023-05-11T20:12:36.219Z,18.5
2023-05-11T20:15:24.652Z,18.4
2023-05-11T20:18:12.163Z,18.3
2023-05-11T20:20:59.767Z,18.2
2023-05-11T20:23:47.333Z,18.2
2023-05-11T20:26:34.956Z,18.1
2023-05-11T20:29:22.369Z,18
2023-05-11T20:32:09.848Z,17.9
2023-05-11T20:34:57.218Z,17.9
2023-05-11T20:37:44.744Z,17.9
2023-05-11T20:40:32.757Z,17.8
2023-05-11T20:43:21.091Z,17.7
2023-05-11T20:46:10.602Z,17.6
2023-05-11T20:48:59.788Z,17.6
2023-05-11T20:51:48.091Z,17.5
2023-05-11T20:54:38.449Z,17.5
2023-05-11T20:57:25.739Z,17.4
2023-05-11T21:00:13.592Z,17.3
2023-05-11T21:03:02.430Z,17.3
2023-05-11T21:05:50.422Z,17.3
2023-05-11T21:08:38.221Z,17.2
2023-05-11T21:11:26.063Z,17.2
2023-05-11T21:14:13.443Z,17.1
2023-05-11T21:17:01.180Z,17.1
2023-05-11T21:19:48.778Z,17
2023-05-11T21:22:36.441Z,16.9
2023-05-11T21:25:23.877Z,16.9
2023-05-11T21:28:11.379Z,16.9
2023-05-11T21:30:58.859Z,16.8
2023-05-11T21:33:46.478Z,16.7
2023-05-11T21:36:34.063Z,16.7
2023-05-11T21:39:23.450Z,16.7
2023-05-11T21:42:11.290Z,16.6
2023-05-11T21:44:58.673Z,16.6
2023-05-11T21:47:46.230Z,16.5
2023-05-11T21:50:33.598Z,16.5
2023-05-11T21:53:21.068Z,16.5
2023-05-11T21:56:08.890Z,16.4
2023-05-11T21:58:57.421Z,16.3
2023-05-11T22:01:44.888Z,16.3
2023-05-11T22:04:34.239Z,16.2
2023-05-11T22:07:21.585Z,16.2
2023-05-11T22:10:09.039Z,16.1
2023-05-11T22:12:58.187Z,16.1
2023-05-11T22:15:45.724Z,16.1
2023-05-11T22:18:33.135Z,16
2023-05-11T22:21:20.469Z,16
2023-05-11T22:24:07.895Z,16
2023-05-11T22:26:55.241Z,15.9
2023-05-11T22:29:43.983Z,15.9
2023-05-11T22:32:31.435Z,15.8
2023-05-11T22:35:18.996Z,15.8
2023-05-11T22:38:07.186Z,15.8
2023-05-11T22:40:54.742Z,15.7
2023-05-11T22:43:42.380Z,15.7
2023-05-11T22:46:29.893Z,15.7
2023-05-11T22:49:17.259Z,15.6
2023-05-11T22:52:04.657Z,15.6
2023-05-11T22:54:52.674Z,15.5
2023-05-11T22:57:42.508Z,15.5
2023-05-11T23:00:30.059Z,15.4
2023-05-11T23:03:17.668Z,15.4
2023-05-11T23:06:05.640Z,15.4
2023-05-11T23:08:58.136Z,15.3
2023-05-11T23:11:45.576Z,15.3
2023-05-11T23:14:33.569Z,15.3
2023-05-11T23:17:21.277Z,15.2
2023-05-11T23:20:08.746Z,15.2
2023-05-11T23:22:57.321Z,15.2
2023-05-11T23:25:44.723Z,15.2
2023-05-11T23:28:32.167Z,15.1
2023-05-11T23:31:19.947Z,15.1
2023-05-11T23:34:07.313Z,15.1
2023-05-11T23:36:54.984Z,15.1
2023-05-11T23:39:42.433Z,15
2023-05-11T23:42:29.872Z,14.9
2023-05-11T23:45:17.554Z,14.9
2023-05-11T23:48:05.186Z,14.9
2023-05-11T23:50:52.568Z,14.9
2023-05-11T23:53:40.796Z,14.8
2023-05-11T23:56:28.351Z,14.8
2023-05-11T23:59:15.954Z,14.7
